sensor_id;sensor_type;location;lat;lon;timestamp;temperature;humidity
11497;DHT22;5805;51.542;7.230;2023-02-15T00:00:36;7.10;99.90
11497;DHT22;5805;51.542;7.230;2023-02-15T00:03:02;7.10;99.90
11497;DHT22;5805;51.542;7.230;2023-02-15T00:05:29;7.00;99.90
11497;DHT22;5805;51.542;7.230;2023-02-15T00:07:55;7.00;99.90
11497;DHT22;5805;51.542;7.230;2023-02-15T00:10:21;6.90;99.90
11497;DHT22;5805;51.542;7.230;2023-02-15T00:12:46;7.00;99.90
11497;DHT22;5805;51.542;7.230;2023-02-15T00:15:14;6.90;99.90
11497;DHT22;5805;51.542;7.230;2023-02-15T00:17:39;6.90;99.90
11497;DHT22;5805;51.542;7.230;2023-02-15T00:20:06;6.90;99.90
11497;DHT22;5805;51.542;7.230;2023-02-15T00:22:32;6.80;99.90
11497;DHT22;5805;51.542;7.230;2023-02-15T00:24:58;6.70;99.90
11497;DHT22;5805;51.542;7.230;2023-02-15T00:27:23;6.70;99.90
11497;DHT22;5805;51.542;7.230;2023-02-15T00:29:49;6.70;99.90
11497;DHT22;5805;51.542;7.230;2023-02-15T00:32:16;6.60;99.90
11497;DHT22;5805;51.542;7.230;2023-02-15T00:34:42;6.60;99.90
11497;DHT22;5805;51.542;7.230;2023-02-15T00:37:07;6.60;99.90
11497;DHT22;5805;51.542;7.230;2023-02-15T00:39:33;6.50;99.90
11497;DHT22;5805;51.542;7.230;2023-02-15T00:41:59;6.60;99.90
11497;DHT22;5805;51.542;7.230;2023-02-15T00:44:24;6.50;99.90
11497;DHT22;5805;51.542;7.230;2023-02-15T00:46:50;6.50;99.90
11497;DHT22;5805;51.542;7.230;2023-02-15T00:49:17;6.50;99.90
11497;DHT22;5805;51.542;7.230;2023-02-15T00:51:43;6.50;99.90
11497;DHT22;5805;51.542;7.230;2023-02-15T00:54:08;6.40;99.90
11497;DHT22;5805;51.542;7.230;2023-02-15T00:56:34;6.40;99.90
11497;DHT22;5805;51.542;7.230;2023-02-15T00:59:00;6.50;99.90
11497;DHT22;5805;51.542;7.230;2023-02-15T01:01:25;6.50;99.90
11497;DHT22;5805;51.542;7.230;2023-02-15T01:03:51;6.50;99.90
11497;DHT22;5805;51.542;7.230;2023-02-15T01:06:18;6.40;99.90
11497;DHT22;5805;51.542;7.230;2023-02-15T01:08:45;6.40;99.90
11497;DHT22;5805;51.542;7.230;2023-02-15T01:11:12;6.40;99.90
11497;DHT22;5805;51.542;7.230;2023-02-15T01:13:38;6.30;99.90
11497;DHT22;5805;51.542;7.230;2023-02-15T01:16:04;6.30;99.90
11497;DHT22;5805;51.542;7.230;2023-02-15T01:18:33;6.30;99.90
11497;DHT22;5805;51.542;7.230;2023-02-15T01:20:59;6.30;99.90
11497;DHT22;5805;51.542;7.230;2023-02-15T01:23:26;6.30;99.90
11497;DHT22;5805;51.542;7.230;2023-02-15T01:25:52;6.30;99.90
11497;DHT22;5805;51.542;7.230;2023-02-15T01:28:18;6.20;99.90
11497;DHT22;5805;51.542;7.230;2023-02-15T01:30:43;6.20;99.90
11497;DHT22;5805;51.542;7.230;2023-02-15T01:33:10;6.10;99.90
11497;DHT22;5805;51.542;7.230;2023-02-15T01:35:36;6.10;99.90
11497;DHT22;5805;51.542;7.230;2023-02-15T01:38:02;6.10;99.90
11497;DHT22;5805;51.542;7.230;2023-02-15T01:40:29;6.10;99.90
11497;DHT22;5805;51.542;7.230;2023-02-15T01:42:55;6.00;99.90
11497;DHT22;5805;51.542;7.230;2023-02-15T01:45:23;6.00;99.90
11497;DHT22;5805;51.542;7.230;2023-02-15T01:47:52;6.00;99.90
11497;DHT22;5805;51.542;7.230;2023-02-15T01:50:23;5.90;99.90
11497;DHT22;5805;51.542;7.230;2023-02-15T01:52:56;6.00;99.90
11497;DHT22;5805;51.542;7.230;2023-02-15T01:55:25;5.80;99.90
11497;DHT22;5805;51.542;7.230;2023-02-15T01:57:55;5.70;99.90
11497;DHT22;5805;51.542;7.230;2023-02-15T02:00:21;5.80;99.90
11497;DHT22;5805;51.542;7.230;2023-02-15T02:02:48;5.80;99.90
11497;DHT22;5805;51.542;7.230;2023-02-15T02:05:14;5.80;99.90
11497;DHT22;5805;51.542;7.230;2023-02-15T02:07:43;5.80;99.90
11497;DHT22;5805;51.542;7.230;2023-02-15T02:10:12;5.80;99.90
11497;DHT22;5805;51.542;7.230;2023-02-15T02:12:38;5.80;99.90
11497;DHT22;5805;51.542;7.230;2023-02-15T02:15:08;5.80;99.90
11497;DHT22;5805;51.542;7.230;2023-02-15T02:17:42;5.70;99.90
11497;DHT22;5805;51.542;7.230;2023-02-15T02:20:24;5.70;99.90
11497;DHT22;5805;51.542;7.230;2023-02-15T02:23:19;5.70;99.90
11497;DHT22;5805;51.542;7.230;2023-02-15T02:32:17;5.50;99.90
11497;DHT22;5805;51.542;7.230;2023-02-15T02:34:56;5.40;99.90
11497;DHT22;5805;51.542;7.230;2023-02-15T02:37:27;5.30;99.90
11497;DHT22;5805;51.542;7.230;2023-02-15T02:39:58;5.50;99.90
11497;DHT22;5805;51.542;7.230;2023-02-15T02:42:29;5.40;99.90
11497;DHT22;5805;51.542;7.230;2023-02-15T02:45:00;5.40;99.90
11497;DHT22;5805;51.542;7.230;2023-02-15T02:47:32;5.40;99.90
11497;DHT22;5805;51.542;7.230;2023-02-15T02:50:03;5.40;99.90
11497;DHT22;5805;51.542;7.230;2023-02-15T02:52:40;5.30;99.90
11497;DHT22;5805;51.542;7.230;2023-02-15T02:55:10;5.30;99.90
11497;DHT22;5805;51.542;7.230;2023-02-15T02:57:40;5.30;99.90
11497;DHT22;5805;51.542;7.230;2023-02-15T03:00:09;5.30;99.90
11497;DHT22;5805;51.542;7.230;2023-02-15T03:02:37;5.20;99.90
11497;DHT22;5805;51.542;7.230;2023-02-15T03:05:14;5.20;99.90
11497;DHT22;5805;51.542;7.230;2023-02-15T03:07:41;5.20;99.90
11497;DHT22;5805;51.542;7.230;2023-02-15T03:10:09;5.10;99.90
11497;DHT22;5805;51.542;7.230;2023-02-15T03:12:38;5.20;99.90
11497;DHT22;5805;51.542;7.230;2023-02-15T03:15:08;5.10;99.90
11497;DHT22;5805;51.542;7.230;2023-02-15T03:17:37;5.00;99.90
11497;DHT22;5805;51.542;7.230;2023-02-15T03:20:08;5.00;99.90
11497;DHT22;5805;51.542;7.230;2023-02-15T03:22:36;5.00;99.90
11497;DHT22;5805;51.542;7.230;2023-02-15T03:25:09;5.00;99.90
11497;DHT22;5805;51.542;7.230;2023-02-15T03:27:38;5.10;99.90
11497;DHT22;5805;51.542;7.230;2023-02-15T03:30:07;5.00;99.90
11497;DHT22;5805;51.542;7.230;2023-02-15T03:32:34;5.00;99.90
11497;DHT22;5805;51.542;7.230;2023-02-15T03:35:02;5.00;99.90
11497;DHT22;5805;51.542;7.230;2023-02-15T03:37:34;4.90;99.90
11497;DHT22;5805;51.542;7.230;2023-02-15T03:40:03;4.90;99.90
11497;DHT22;5805;51.542;7.230;2023-02-15T03:42:34;4.80;99.90
11497;DHT22;5805;51.542;7.230;2023-02-15T03:45:07;4.80;99.90
11497;DHT22;5805;51.542;7.230;2023-02-15T03:47:36;4.80;99.90
11497;DHT22;5805;51.542;7.230;2023-02-15T03:50:06;4.80;99.90
11497;DHT22;5805;51.542;7.230;2023-02-15T03:52:35;4.90;99.90
11497;DHT22;5805;51.542;7.230;2023-02-15T03:55:01;4.90;99.90
11497;DHT22;5805;51.542;7.230;2023-02-15T03:57:28;4.90;99.90
11497;DHT22;5805;51.542;7.230;2023-02-15T03:59:54;4.90;99.90
11497;DHT22;5805;51.542;7.230;2023-02-15T04:02:21;4.80;99.90
11497;DHT22;5805;51.542;7.230;2023-02-15T04:04:49;4.90;99.90
11497;DHT22;5805;51.542;7.230;2023-02-15T04:07:15;4.80;99.90
11497;DHT22;5805;51.542;7.230;2023-02-15T04:09:42;4.80;99.90
11497;DHT22;5805;51.542;7.230;2023-02-15T04:12:08;4.70;99.90
11497;DHT22;5805;51.542;7.230;2023-02-15T04:14:34;4.90;99.90
11497;DHT22;5805;51.542;7.230;2023-02-15T04:16:59;4.70;99.90
11497;DHT22;5805;51.542;7.230;2023-02-15T04:19:25;4.80;99.90
11497;DHT22;5805;51.542;7.230;2023-02-15T04:21:51;4.70;99.90
11497;DHT22;5805;51.542;7.230;2023-02-15T04:24:16;4.70;99.90
11497;DHT22;5805;51.542;7.230;2023-02-15T04:26:44;4.60;99.90
11497;DHT22;5805;51.542;7.230;2023-02-15T04:29:09;4.60;99.90
11497;DHT22;5805;51.542;7.230;2023-02-15T04:31:35;4.60;99.90
11497;DHT22;5805;51.542;7.230;2023-02-15T04:34:01;4.60;99.90
11497;DHT22;5805;51.542;7.230;2023-02-15T04:36:26;4.80;99.90
11497;DHT22;5805;51.542;7.230;2023-02-15T04:38:52;4.70;99.90
11497;DHT22;5805;51.542;7.230;2023-02-15T04:41:18;4.70;99.90
11497;DHT22;5805;51.542;7.230;2023-02-15T04:43:45;4.70;99.90
11497;DHT22;5805;51.542;7.230;2023-02-15T04:46:10;4.70;99.90
11497;DHT22;5805;51.542;7.230;2023-02-15T04:48:36;4.60;99.90
11497;DHT22;5805;51.542;7.230;2023-02-15T04:51:05;4.60;99.90
11497;DHT22;5805;51.542;7.230;2023-02-15T04:53:31;4.60;99.90
11497;DHT22;5805;51.542;7.230;2023-02-15T04:55:56;4.70;99.90
11497;DHT22;5805;51.542;7.230;2023-02-15T04:58:22;4.60;99.90
11497;DHT22;5805;51.542;7.230;2023-02-15T05:00:49;4.70;99.90
11497;DHT22;5805;51.542;7.230;2023-02-15T05:03:15;4.60;99.90
11497;DHT22;5805;51.542;7.230;2023-02-15T05:05:40;4.50;99.90
11497;DHT22;5805;51.542;7.230;2023-02-15T05:08:06;4.60;99.90
11497;DHT22;5805;51.542;7.230;2023-02-15T05:10:32;4.50;99.90
11497;DHT22;5805;51.542;7.230;2023-02-15T05:12:57;4.50;99.90
11497;DHT22;5805;51.542;7.230;2023-02-15T05:15:23;4.40;99.90
11497;DHT22;5805;51.542;7.230;2023-02-15T05:17:50;4.40;99.90
11497;DHT22;5805;51.542;7.230;2023-02-15T05:20:16;4.40;99.90
11497;DHT22;5805;51.542;7.230;2023-02-15T05:22:42;4.40;99.90
11497;DHT22;5805;51.542;7.230;2023-02-15T05:25:08;4.40;99.90
11497;DHT22;5805;51.542;7.230;2023-02-15T05:27:34;4.40;99.90
11497;DHT22;5805;51.542;7.230;2023-02-15T05:30:00;4.40;99.90
11497;DHT22;5805;51.542;7.230;2023-02-15T05:32:25;4.70;99.90
11497;DHT22;5805;51.542;7.230;2023-02-15T05:34:52;4.40;99.90
11497;DHT22;5805;51.542;7.230;2023-02-15T05:37:18;4.40;99.90
11497;DHT22;5805;51.542;7.230;2023-02-15T05:39:44;4.50;99.90
11497;DHT22;5805;51.542;7.230;2023-02-15T05:42:09;4.50;99.90
11497;DHT22;5805;51.542;7.230;2023-02-15T05:44:35;4.50;99.90
11497;DHT22;5805;51.542;7.230;2023-02-15T05:47:01;4.40;99.90
11497;DHT22;5805;51.542;7.230;2023-02-15T05:49:26;4.30;99.90
11497;DHT22;5805;51.542;7.230;2023-02-15T05:51:53;4.30;99.90
11497;DHT22;5805;51.542;7.230;2023-02-15T05:54:19;4.30;99.90
11497;DHT22;5805;51.542;7.230;2023-02-15T05:56:45;4.20;99.90
11497;DHT22;5805;51.542;7.230;2023-02-15T05:59:10;4.20;99.90
11497;DHT22;5805;51.542;7.230;2023-02-15T06:01:36;4.20;99.90
11497;DHT22;5805;51.542;7.230;2023-02-15T06:04:02;4.10;99.90
11497;DHT22;5805;51.542;7.230;2023-02-15T06:06:27;4.20;99.90
11497;DHT22;5805;51.542;7.230;2023-02-15T06:08:54;4.20;99.90
11497;DHT22;5805;51.542;7.230;2023-02-15T06:11:20;4.20;99.90
11497;DHT22;5805;51.542;7.230;2023-02-15T06:13:46;4.20;99.90
11497;DHT22;5805;51.542;7.230;2023-02-15T06:16:11;4.20;99.90
11497;DHT22;5805;51.542;7.230;2023-02-15T06:18:37;4.20;99.90
11497;DHT22;5805;51.542;7.230;2023-02-15T06:21:03;4.20;99.90
11497;DHT22;5805;51.542;7.230;2023-02-15T06:23:28;4.30;99.90
11497;DHT22;5805;51.542;7.230;2023-02-15T06:25:56;4.20;99.90
11497;DHT22;5805;51.542;7.230;2023-02-15T06:28:21;4.20;99.90
11497;DHT22;5805;51.542;7.230;2023-02-15T06:30:47;4.20;99.90
11497;DHT22;5805;51.542;7.230;2023-02-15T06:33:13;4.70;99.90
11497;DHT22;5805;51.542;7.230;2023-02-15T06:35:38;4.20;99.90
11497;DHT22;5805;51.542;7.230;2023-02-15T06:38:04;4.20;99.90
11497;DHT22;5805;51.542;7.230;2023-02-15T06:40:29;4.20;99.90
11497;DHT22;5805;51.542;7.230;2023-02-15T06:42:57;4.30;99.90
11497;DHT22;5805;51.542;7.230;2023-02-15T06:45:22;4.30;99.90
11497;DHT22;5805;51.542;7.230;2023-02-15T06:47:48;4.20;99.90
11497;DHT22;5805;51.542;7.230;2023-02-15T06:50:13;4.30;99.90
11497;DHT22;5805;51.542;7.230;2023-02-15T06:52:39;4.30;99.90
11497;DHT22;5805;51.542;7.230;2023-02-15T06:55:05;4.20;99.90
11497;DHT22;5805;51.542;7.230;2023-02-15T06:57:30;4.20;99.90
11497;DHT22;5805;51.542;7.230;2023-02-15T06:59:57;4.20;99.90
11497;DHT22;5805;51.542;7.230;2023-02-15T07:02:22;4.20;99.90
11497;DHT22;5805;51.542;7.230;2023-02-15T07:04:48;4.20;99.90
11497;DHT22;5805;51.542;7.230;2023-02-15T07:07:13;4.30;99.90
11497;DHT22;5805;51.542;7.230;2023-02-15T07:09:39;4.60;99.90
11497;DHT22;5805;51.542;7.230;2023-02-15T07:12:04;4.30;99.90
11497;DHT22;5805;51.542;7.230;2023-02-15T07:14:30;4.50;99.90
11497;DHT22;5805;51.542;7.230;2023-02-15T07:16:57;4.40;99.90
11497;DHT22;5805;51.542;7.230;2023-02-15T07:19:23;4.40;99.90
11497;DHT22;5805;51.542;7.230;2023-02-15T07:21:48;4.60;99.90
11497;DHT22;5805;51.542;7.230;2023-02-15T07:24:14;4.60;99.90
11497;DHT22;5805;51.542;7.230;2023-02-15T07:26:39;4.80;99.90
11497;DHT22;5805;51.542;7.230;2023-02-15T07:29:05;4.90;99.90
11497;DHT22;5805;51.542;7.230;2023-02-15T07:31:30;5.00;99.90
11497;DHT22;5805;51.542;7.230;2023-02-15T07:33:57;5.00;99.90
11497;DHT22;5805;51.542;7.230;2023-02-15T07:36:24;5.20;99.90
11497;DHT22;5805;51.542;7.230;2023-02-15T07:38:49;5.30;99.90
11497;DHT22;5805;51.542;7.230;2023-02-15T07:41:15;5.30;99.90
11497;DHT22;5805;51.542;7.230;2023-02-15T07:43:41;5.30;99.90
11497;DHT22;5805;51.542;7.230;2023-02-15T07:46:07;5.40;99.90
11497;DHT22;5805;51.542;7.230;2023-02-15T07:48:33;5.40;99.90
11497;DHT22;5805;51.542;7.230;2023-02-15T07:51:01;5.40;99.90
11497;DHT22;5805;51.542;7.230;2023-02-15T07:53:26;5.50;99.90
11497;DHT22;5805;51.542;7.230;2023-02-15T07:55:52;5.50;99.90
11497;DHT22;5805;51.542;7.230;2023-02-15T07:58:17;5.60;99.90
11497;DHT22;5805;51.542;7.230;2023-02-15T08:00:43;5.60;99.90
11497;DHT22;5805;51.542;7.230;2023-02-15T08:03:08;5.70;99.90
11497;DHT22;5805;51.542;7.230;2023-02-15T08:05:34;5.80;99.90
11497;DHT22;5805;51.542;7.230;2023-02-15T08:08:00;5.90;99.90
11497;DHT22;5805;51.542;7.230;2023-02-15T08:10:26;6.00;99.90
11497;DHT22;5805;51.542;7.230;2023-02-15T08:12:51;6.20;99.90
11497;DHT22;5805;51.542;7.230;2023-02-15T08:15:17;6.30;99.90
11497;DHT22;5805;51.542;7.230;2023-02-15T08:17:42;6.30;99.90
11497;DHT22;5805;51.542;7.230;2023-02-15T08:20:08;6.40;99.90
11497;DHT22;5805;51.542;7.230;2023-02-15T08:22:34;6.50;99.90
11497;DHT22;5805;51.542;7.230;2023-02-15T08:25:01;6.70;99.90
11497;DHT22;5805;51.542;7.230;2023-02-15T08:27:26;6.80;99.90
11497;DHT22;5805;51.542;7.230;2023-02-15T08:29:52;6.90;99.90
11497;DHT22;5805;51.542;7.230;2023-02-15T08:32:17;7.00;99.90
11497;DHT22;5805;51.542;7.230;2023-02-15T08:34:43;7.20;99.90
11497;DHT22;5805;51.542;7.230;2023-02-15T08:37:08;7.20;99.90
11497;DHT22;5805;51.542;7.230;2023-02-15T08:39:34;7.30;99.90
11497;DHT22;5805;51.542;7.230;2023-02-15T08:42:01;7.40;99.90
11497;DHT22;5805;51.542;7.230;2023-02-15T08:44:26;7.50;99.90
11497;DHT22;5805;51.542;7.230;2023-02-15T08:46:53;7.60;99.90
11497;DHT22;5805;51.542;7.230;2023-02-15T08:49:19;7.70;99.90
11497;DHT22;5805;51.542;7.230;2023-02-15T08:51:45;7.70;99.90
11497;DHT22;5805;51.542;7.230;2023-02-15T08:54:12;7.80;99.90
11497;DHT22;5805;51.542;7.230;2023-02-15T08:56:39;8.00;99.90
11497;DHT22;5805;51.542;7.230;2023-02-15T08:59:07;8.10;99.90
11497;DHT22;5805;51.542;7.230;2023-02-15T09:01:36;8.20;99.90
11497;DHT22;5805;51.542;7.230;2023-02-15T09:04:02;8.30;99.90
11497;DHT22;5805;51.542;7.230;2023-02-15T09:06:28;8.40;99.90
11497;DHT22;5805;51.542;7.230;2023-02-15T09:08:54;8.60;99.90
11497;DHT22;5805;51.542;7.230;2023-02-15T09:11:20;8.70;99.90
11497;DHT22;5805;51.542;7.230;2023-02-15T09:13:46;8.80;99.90
11497;DHT22;5805;51.542;7.230;2023-02-15T09:16:13;9.00;99.90
11497;DHT22;5805;51.542;7.230;2023-02-15T09:18:39;9.10;99.90
11497;DHT22;5805;51.542;7.230;2023-02-15T09:21:05;9.20;99.90
11497;DHT22;5805;51.542;7.230;2023-02-15T09:23:31;9.30;99.90
11497;DHT22;5805;51.542;7.230;2023-02-15T09:25:56;9.40;99.90
11497;DHT22;5805;51.542;7.230;2023-02-15T09:28:22;9.50;99.90
11497;DHT22;5805;51.542;7.230;2023-02-15T09:30:47;9.60;99.90
11497;DHT22;5805;51.542;7.230;2023-02-15T09:33:14;9.70;99.90
11497;DHT22;5805;51.542;7.230;2023-02-15T09:35:40;9.80;99.90
11497;DHT22;5805;51.542;7.230;2023-02-15T09:38:05;10.30;99.90
11497;DHT22;5805;51.542;7.230;2023-02-15T09:40:31;10.00;99.90
11497;DHT22;5805;51.542;7.230;2023-02-15T09:43:04;10.10;99.90
11497;DHT22;5805;51.542;7.230;2023-02-15T09:48:28;10.30;99.90
11497;DHT22;5805;51.542;7.230;2023-02-15T09:51:00;10.50;99.90
11497;DHT22;5805;51.542;7.230;2023-02-15T09:53:37;10.60;99.90
11497;DHT22;5805;51.542;7.230;2023-02-15T09:56:14;10.70;99.90
11497;DHT22;5805;51.542;7.230;2023-02-15T09:58:49;10.90;99.90
11497;DHT22;5805;51.542;7.230;2023-02-15T10:01:27;11.40;99.90
11497;DHT22;5805;51.542;7.230;2023-02-15T10:06:53;11.30;99.90
11497;DHT22;5805;51.542;7.230;2023-02-15T10:09:33;11.50;99.90
11497;DHT22;5805;51.542;7.230;2023-02-15T10:12:11;11.60;99.90
11497;DHT22;5805;51.542;7.230;2023-02-15T10:15:02;11.80;99.90
11497;DHT22;5805;51.542;7.230;2023-02-15T10:17:51;11.90;99.90
11497;DHT22;5805;51.542;7.230;2023-02-15T10:20:27;12.00;99.90
11497;DHT22;5805;51.542;7.230;2023-02-15T10:23:13;12.10;99.90
11497;DHT22;5805;51.542;7.230;2023-02-15T10:25:46;12.30;99.90
11497;DHT22;5805;51.542;7.230;2023-02-15T10:28:18;12.40;99.90
11497;DHT22;5805;51.542;7.230;2023-02-15T10:30:47;12.60;99.90
11497;DHT22;5805;51.542;7.230;2023-02-15T10:33:20;12.60;99.90
11497;DHT22;5805;51.542;7.230;2023-02-15T10:35:57;12.80;98.80
11497;DHT22;5805;51.542;7.230;2023-02-15T10:38:28;12.90;98.60
11497;DHT22;5805;51.542;7.230;2023-02-15T10:41:07;13.00;99.30
11497;DHT22;5805;51.542;7.230;2023-02-15T10:46:39;13.30;96.10
11497;DHT22;5805;51.542;7.230;2023-02-15T10:49:37;13.40;95.30
11497;DHT22;5805;51.542;7.230;2023-02-15T10:52:20;13.50;94.60
11497;DHT22;5805;51.542;7.230;2023-02-15T10:54:54;13.90;95.50
11497;DHT22;5805;51.542;7.230;2023-02-15T10:57:28;13.80;94.70
11497;DHT22;5805;51.542;7.230;2023-02-15T11:00:05;13.90;94.60
11497;DHT22;5805;51.542;7.230;2023-02-15T11:02:54;14.00;94.10
11497;DHT22;5805;51.542;7.230;2023-02-15T11:05:31;14.10;93.40
11497;DHT22;5805;51.542;7.230;2023-02-15T11:08:04;14.10;92.90
11497;DHT22;5805;51.542;7.230;2023-02-15T11:10:36;14.20;92.20
11497;DHT22;5805;51.542;7.230;2023-02-15T11:13:08;14.30;91.90
11497;DHT22;5805;51.542;7.230;2023-02-15T11:15:35;14.40;91.80
11497;DHT22;5805;51.542;7.230;2023-02-15T11:18:05;14.60;90.30
11497;DHT22;5805;51.542;7.230;2023-02-15T11:20:35;14.50;90.00
11497;DHT22;5805;51.542;7.230;2023-02-15T11:23:07;14.60;89.20
11497;DHT22;5805;51.542;7.230;2023-02-15T11:25:35;14.60;87.90
11497;DHT22;5805;51.542;7.230;2023-02-15T11:28:03;14.60;87.20
11497;DHT22;5805;51.542;7.230;2023-02-15T11:30:33;14.70;88.80
11497;DHT22;5805;51.542;7.230;2023-02-15T11:33:01;14.70;86.90
11497;DHT22;5805;51.542;7.230;2023-02-15T11:35:29;14.80;84.90
11497;DHT22;5805;51.542;7.230;2023-02-15T11:37:58;14.90;83.90
11497;DHT22;5805;51.542;7.230;2023-02-15T11:40:28;15.00;82.00
11497;DHT22;5805;51.542;7.230;2023-02-15T11:42:56;15.10;82.10
11497;DHT22;5805;51.542;7.230;2023-02-15T11:45:22;15.20;80.90
11497;DHT22;5805;51.542;7.230;2023-02-15T11:47:51;15.30;78.10
11497;DHT22;5805;51.542;7.230;2023-02-15T11:50:19;15.30;75.30
11497;DHT22;5805;51.542;7.230;2023-02-15T11:52:45;15.50;75.00
11497;DHT22;5805;51.542;7.230;2023-02-15T11:55:12;15.50;74.50
11497;DHT22;5805;51.542;7.230;2023-02-15T11:57:43;15.50;73.20
11497;DHT22;5805;51.542;7.230;2023-02-15T12:00:10;15.60;73.70
11497;DHT22;5805;51.542;7.230;2023-02-15T12:02:38;15.70;73.50
11497;DHT22;5805;51.542;7.230;2023-02-15T12:05:07;15.70;72.80
11497;DHT22;5805;51.542;7.230;2023-02-15T12:07:35;15.80;71.40
11497;DHT22;5805;51.542;7.230;2023-02-15T12:10:03;15.80;70.00
11497;DHT22;5805;51.542;7.230;2023-02-15T12:12:30;15.80;70.40
11497;DHT22;5805;51.542;7.230;2023-02-15T12:14:57;15.80;68.60
11497;DHT22;5805;51.542;7.230;2023-02-15T12:17:24;15.90;68.80
11497;DHT22;5805;51.542;7.230;2023-02-15T12:19:51;15.90;68.80
11497;DHT22;5805;51.542;7.230;2023-02-15T12:22:19;16.00;67.80
11497;DHT22;5805;51.542;7.230;2023-02-15T12:24:45;16.00;67.70
11497;DHT22;5805;51.542;7.230;2023-02-15T12:27:13;16.00;69.10
11497;DHT22;5805;51.542;7.230;2023-02-15T12:29:41;16.00;67.00
11497;DHT22;5805;51.542;7.230;2023-02-15T12:32:10;16.00;67.70
11497;DHT22;5805;51.542;7.230;2023-02-15T12:34:37;16.00;67.50
11497;DHT22;5805;51.542;7.230;2023-02-15T12:37:07;16.00;67.90
11497;DHT22;5805;51.542;7.230;2023-02-15T12:39:34;16.10;67.00
11497;DHT22;5805;51.542;7.230;2023-02-15T12:42:01;16.00;65.50
11497;DHT22;5805;51.542;7.230;2023-02-15T12:44:27;16.00;64.40
11497;DHT22;5805;51.542;7.230;2023-02-15T12:46:55;15.90;65.00
11497;DHT22;5805;51.542;7.230;2023-02-15T12:49:23;16.20;64.90
11497;DHT22;5805;51.542;7.230;2023-02-15T12:51:49;15.90;64.90
11497;DHT22;5805;51.542;7.230;2023-02-15T12:56:58;15.90;63.70
11497;DHT22;5805;51.542;7.230;2023-02-15T12:59:24;16.00;63.20
11497;DHT22;5805;51.542;7.230;2023-02-15T13:01:50;16.00;62.70
11497;DHT22;5805;51.542;7.230;2023-02-15T13:04:20;16.00;62.00
11497;DHT22;5805;51.542;7.230;2023-02-15T13:06:48;16.00;61.30
11497;DHT22;5805;51.542;7.230;2023-02-15T13:09:14;16.20;60.80
11497;DHT22;5805;51.542;7.230;2023-02-15T13:11:41;16.00;60.60
11497;DHT22;5805;51.542;7.230;2023-02-15T13:14:17;16.00;60.10
11497;DHT22;5805;51.542;7.230;2023-02-15T13:16:44;15.90;59.80
11497;DHT22;5805;51.542;7.230;2023-02-15T13:19:10;15.90;59.90
11497;DHT22;5805;51.542;7.230;2023-02-15T13:21:38;15.90;59.40
11497;DHT22;5805;51.542;7.230;2023-02-15T13:24:06;15.90;59.20
11497;DHT22;5805;51.542;7.230;2023-02-15T13:26:33;15.90;59.00
11497;DHT22;5805;51.542;7.230;2023-02-15T13:29:00;15.90;59.50
11497;DHT22;5805;51.542;7.230;2023-02-15T13:31:29;15.80;59.30
11497;DHT22;5805;51.542;7.230;2023-02-15T13:33:56;15.80;60.40
11497;DHT22;5805;51.542;7.230;2023-02-15T13:36:24;15.80;60.60
11497;DHT22;5805;51.542;7.230;2023-02-15T13:38:55;15.80;59.90
11497;DHT22;5805;51.542;7.230;2023-02-15T13:41:25;15.70;59.70
11497;DHT22;5805;51.542;7.230;2023-02-15T13:43:54;15.70;59.50
11497;DHT22;5805;51.542;7.230;2023-02-15T13:46:32;15.70;59.10
11497;DHT22;5805;51.542;7.230;2023-02-15T13:49:03;15.70;59.10
11497;DHT22;5805;51.542;7.230;2023-02-15T13:51:31;15.70;58.70
11497;DHT22;5805;51.542;7.230;2023-02-15T13:54:05;15.70;58.70
11497;DHT22;5805;51.542;7.230;2023-02-15T13:56:38;15.60;57.80
11497;DHT22;5805;51.542;7.230;2023-02-15T14:01:47;15.60;57.90
11497;DHT22;5805;51.542;7.230;2023-02-15T14:07:12;15.50;58.10
11497;DHT22;5805;51.542;7.230;2023-02-15T14:09:43;15.40;58.50
11497;DHT22;5805;51.542;7.230;2023-02-15T14:12:21;15.40;58.00
11497;DHT22;5805;51.542;7.230;2023-02-15T14:14:58;15.40;58.10
11497;DHT22;5805;51.542;7.230;2023-02-15T14:17:31;15.40;58.20
11497;DHT22;5805;51.542;7.230;2023-02-15T14:20:04;15.60;58.30
11497;DHT22;5805;51.542;7.230;2023-02-15T14:22:34;15.30;58.10
11497;DHT22;5805;51.542;7.230;2023-02-15T14:25:05;15.30;58.20
11497;DHT22;5805;51.542;7.230;2023-02-15T14:27:39;15.30;57.70
11497;DHT22;5805;51.542;7.230;2023-02-15T14:30:13;15.30;57.60
11497;DHT22;5805;51.542;7.230;2023-02-15T14:32:41;15.30;56.90
11497;DHT22;5805;51.542;7.230;2023-02-15T14:35:12;15.30;57.50
11497;DHT22;5805;51.542;7.230;2023-02-15T14:37:39;15.30;57.90
11497;DHT22;5805;51.542;7.230;2023-02-15T14:40:08;15.20;57.90
11497;DHT22;5805;51.542;7.230;2023-02-15T14:42:34;15.20;57.80
11497;DHT22;5805;51.542;7.230;2023-02-15T14:45:04;15.20;57.20
11497;DHT22;5805;51.542;7.230;2023-02-15T14:47:33;15.20;57.00
11497;DHT22;5805;51.542;7.230;2023-02-15T14:50:00;15.20;57.20
11497;DHT22;5805;51.542;7.230;2023-02-15T14:55:34;15.10;57.10
11497;DHT22;5805;51.542;7.230;2023-02-15T14:58:00;15.00;56.70
11497;DHT22;5805;51.542;7.230;2023-02-15T15:00:36;15.00;56.30
11497;DHT22;5805;51.542;7.230;2023-02-15T15:03:02;14.90;56.60
11497;DHT22;5805;51.542;7.230;2023-02-15T15:05:35;14.90;56.60
11497;DHT22;5805;51.542;7.230;2023-02-15T15:08:17;14.90;56.60
11497;DHT22;5805;51.542;7.230;2023-02-15T15:10:46;14.80;56.60
11497;DHT22;5805;51.542;7.230;2023-02-15T15:15:57;14.70;57.00
11497;DHT22;5805;51.542;7.230;2023-02-15T15:18:43;14.60;57.20
11497;DHT22;5805;51.542;7.230;2023-02-15T15:21:09;14.60;57.50
11497;DHT22;5805;51.542;7.230;2023-02-15T15:23:39;14.60;58.00
11497;DHT22;5805;51.542;7.230;2023-02-15T15:26:20;14.60;58.20
11497;DHT22;5805;51.542;7.230;2023-02-15T15:28:53;14.60;58.40
11497;DHT22;5805;51.542;7.230;2023-02-15T15:31:21;14.60;58.50
11497;DHT22;5805;51.542;7.230;2023-02-15T15:33:56;14.60;58.30
11497;DHT22;5805;51.542;7.230;2023-02-15T15:39:12;14.60;58.40
11497;DHT22;5805;51.542;7.230;2023-02-15T15:41:45;14.60;58.30
11497;DHT22;5805;51.542;7.230;2023-02-15T15:44:28;14.60;58.80
11497;DHT22;5805;51.542;7.230;2023-02-15T15:47:12;14.60;59.00
11497;DHT22;5805;51.542;7.230;2023-02-15T15:49:43;14.60;59.10
11497;DHT22;5805;51.542;7.230;2023-02-15T15:52:13;14.50;59.30
11497;DHT22;5805;51.542;7.230;2023-02-15T15:54:39;14.50;59.30
11497;DHT22;5805;51.542;7.230;2023-02-15T15:57:05;14.50;59.40
11497;DHT22;5805;51.542;7.230;2023-02-15T15:59:37;14.50;59.70
11497;DHT22;5805;51.542;7.230;2023-02-15T16:02:11;14.60;59.70
11497;DHT22;5805;51.542;7.230;2023-02-15T16:04:38;14.40;59.70
11497;DHT22;5805;51.542;7.230;2023-02-15T16:07:13;14.40;60.00
11497;DHT22;5805;51.542;7.230;2023-02-15T16:09:39;14.40;60.20
11497;DHT22;5805;51.542;7.230;2023-02-15T16:12:05;14.30;60.00
11497;DHT22;5805;51.542;7.230;2023-02-15T16:14:39;14.30;60.40
11497;DHT22;5805;51.542;7.230;2023-02-15T16:17:06;14.20;60.90
11497;DHT22;5805;51.542;7.230;2023-02-15T16:19:34;14.20;61.20
11497;DHT22;5805;51.542;7.230;2023-02-15T16:22:00;14.10;61.50
11497;DHT22;5805;51.542;7.230;2023-02-15T16:24:32;14.10;61.80
11497;DHT22;5805;51.542;7.230;2023-02-15T16:27:11;14.00;61.80
11497;DHT22;5805;51.542;7.230;2023-02-15T16:29:39;14.00;62.20
11497;DHT22;5805;51.542;7.230;2023-02-15T16:32:06;13.90;62.40
11497;DHT22;5805;51.542;7.230;2023-02-15T16:34:51;13.90;62.70